createdAt,value
2022-09-10T00:02:23.740Z,13.00
2022-09-10T00:05:24.719Z,12.90
2022-09-10T00:08:26.212Z,12.90
2022-09-10T00:11:32.410Z,12.90
2022-09-10T00:14:33.544Z,12.80
2022-09-10T00:17:34.341Z,12.90
2022-09-10T00:20:42.075Z,13.00
2022-09-10T00:23:45.779Z,13.10
2022-09-10T00:26:46.678Z,13.20
2022-09-10T00:29:50.924Z,13.20
2022-09-10T00:32:53.111Z,13.20
2022-09-10T00:35:53.951Z,13.20
2022-09-10T00:38:59.363Z,13.20
2022-09-10T00:42:00.763Z,13.10
2022-09-10T00:45:04.539Z,13.20
2022-09-10T00:48:27.706Z,13.20
2022-09-10T00:51:35.347Z,13.00
2022-09-10T00:54:38.931Z,12.80
2022-09-10T00:57:41.739Z,12.60
2022-09-10T01:00:42.976Z,12.60
2022-09-10T01:03:45.359Z,12.70
2022-09-10T01:06:48.491Z,12.80
2022-09-10T01:09:49.976Z,12.80
2022-09-10T01:13:12.078Z,12.90
2022-09-10T01:16:36.562Z,13.00
2022-09-10T01:20:05.598Z,13.10
2022-09-10T01:23:19.702Z,13.10
2022-09-10T01:26:55.191Z,13.10
2022-09-10T01:30:10.377Z,13.00
2022-09-10T01:33:50.928Z,13.00
2022-09-10T01:37:00.476Z,13.10
2022-09-10T01:40:04.352Z,13.20
2022-09-10T01:43:11.827Z,13.30
2022-09-10T01:46:59.547Z,13.20
2022-09-10T01:50:09.422Z,13.30
2022-09-10T01:54:05.831Z,13.20
2022-09-10T01:57:40.788Z,13.20
2022-09-10T02:00:54.900Z,13.30
2022-09-10T02:04:01.770Z,13.20
2022-09-10T02:07:05.705Z,12.90
2022-09-10T02:10:09.648Z,12.70
2022-09-10T02:13:17.459Z,12.60
2022-09-10T02:16:40.681Z,12.60
2022-09-10T02:19:44.632Z,12.60
2022-09-10T02:22:55.450Z,12.60
2022-09-10T02:25:56.268Z,12.70
2022-09-10T02:29:02.213Z,12.90
2022-09-10T02:32:04.460Z,13.00
2022-09-10T02:35:06.541Z,13.10
2022-09-10T02:38:08.302Z,13.20
2022-09-10T02:41:12.071Z,13.30
2022-09-10T02:44:13.094Z,13.40
2022-09-10T02:47:14.308Z,13.50
2022-09-10T02:50:16.038Z,13.50
2022-09-10T02:53:17.135Z,13.70
2022-09-10T02:56:21.572Z,13.70
2022-09-10T02:59:23.356Z,13.60
2022-09-10T03:02:24.702Z,13.50
2022-09-10T03:05:26.001Z,13.60
2022-09-10T03:08:27.373Z,13.50
2022-09-10T03:11:28.821Z,13.40
2022-09-10T03:14:32.345Z,13.40
2022-09-10T03:17:34.652Z,13.40
2022-09-10T03:20:37.456Z,13.30
2022-09-10T03:23:40.411Z,13.30
2022-09-10T03:26:41.578Z,13.30
2022-09-10T03:29:43.364Z,13.30
2022-09-10T03:32:45.884Z,13.30
2022-09-10T03:35:52.415Z,13.20
2022-09-10T03:38:53.572Z,13.20
2022-09-10T03:41:54.715Z,13.20
2022-09-10T03:44:56.834Z,13.20
2022-09-10T03:47:58.341Z,13.20
2022-09-10T03:50:59.710Z,13.20
2022-09-10T03:54:02.704Z,13.20
2022-09-10T03:57:06.400Z,13.20
2022-09-10T04:00:11.964Z,13.00
2022-09-10T04:03:15.772Z,13.10
2022-09-10T04:06:17.064Z,13.00
2022-09-10T04:09:17.843Z,13.00
2022-09-10T04:12:18.845Z,13.00
2022-09-10T04:15:24.707Z,13.00
2022-09-10T04:18:28.994Z,13.00
2022-09-10T04:21:31.680Z,13.10
2022-09-10T04:24:33.506Z,13.10
2022-09-10T04:27:34.318Z,13.10
2022-09-10T04:30:37.525Z,13.10
2022-09-10T04:33:38.722Z,13.10
2022-09-10T04:36:40.253Z,13.10
2022-09-10T04:39:43.751Z,13.10
2022-09-10T04:42:45.266Z,13.10
2022-09-10T04:45:46.733Z,13.00
2022-09-10T04:48:48.015Z,13.00
2022-09-10T04:51:52.942Z,13.00
2022-09-10T04:54:54.253Z,13.00
2022-09-10T04:57:55.519Z,13.00
2022-09-10T05:00:57.194Z,13.00
2022-09-10T05:03:58.657Z,12.90
2022-09-10T05:06:59.941Z,12.90
2022-09-10T05:10:00.508Z,12.90
2022-09-10T05:13:03.395Z,12.80
2022-09-10T05:16:05.309Z,12.70
2022-09-10T05:19:08.109Z,12.70
2022-09-10T05:22:17.578Z,12.70
2022-09-10T05:25:18.916Z,12.70
2022-09-10T05:28:22.905Z,12.80
2022-09-10T05:31:23.955Z,12.80
2022-09-10T05:34:26.010Z,12.90
2022-09-10T05:37:28.215Z,13.10
2022-09-10T05:40:29.389Z,13.20
2022-09-10T05:43:30.840Z,13.20
2022-09-10T05:46:33.416Z,13.20
2022-09-10T05:49:42.716Z,13.30
2022-09-10T05:52:43.722Z,13.50
2022-09-10T05:55:46.162Z,13.60
2022-09-10T05:58:47.697Z,13.70
2022-09-10T06:01:51.566Z,13.80
2022-09-10T06:04:54.759Z,13.80
2022-09-10T06:07:56.824Z,13.80
2022-09-10T06:11:05.213Z,13.70
2022-09-10T06:14:12.520Z,13.70
2022-09-10T06:17:14.206Z,13.70
2022-09-10T06:20:15.799Z,13.70
2022-09-10T06:23:18.700Z,13.70
2022-09-10T06:26:22.116Z,13.70
2022-09-10T06:29:26.690Z,13.70
2022-09-10T06:32:27.949Z,13.70
2022-09-10T06:35:29.684Z,13.80
2022-09-10T06:38:33.983Z,13.70
2022-09-10T06:41:35.369Z,13.70
2022-09-10T06:44:41.283Z,13.70
2022-09-10T06:51:29.869Z,13.80
2022-09-10T06:54:31.064Z,13.80
2022-09-10T06:57:44.520Z,13.80
2022-09-10T07:00:48.503Z,13.80
2022-09-10T07:03:59.796Z,13.80
2022-09-10T07:07:02.160Z,13.80
2022-09-10T07:10:04.103Z,13.90
2022-09-10T07:13:06.900Z,13.90
2022-09-10T07:16:08.398Z,14.00
2022-09-10T07:19:09.966Z,14.00
2022-09-10T07:22:17.512Z,14.10
2022-09-10T07:25:20.207Z,14.20
2022-09-10T07:28:30.307Z,14.50
2022-09-10T07:31:35.030Z,14.60
2022-09-10T07:34:41.844Z,14.70
2022-09-10T07:37:46.663Z,14.80
2022-09-10T07:40:48.588Z,14.80
2022-09-10T07:43:54.663Z,14.90
2022-09-10T07:46:59.749Z,15.10
2022-09-10T07:50:00.758Z,15.20
2022-09-10T07:53:03.041Z,15.30
2022-09-10T07:56:08.049Z,15.40
2022-09-10T07:59:13.380Z,15.40
2022-09-10T08:02:25.983Z,15.50
2022-09-10T08:05:32.993Z,15.50
2022-09-10T08:08:38.826Z,15.60
2022-09-10T08:11:41.843Z,15.70
2022-09-10T08:14:46.154Z,15.80
2022-09-10T08:17:47.915Z,15.70
2022-09-10T08:20:56.136Z,15.80
2022-09-10T08:23:57.658Z,15.90
2022-09-10T08:27:00.399Z,15.90
2022-09-10T08:30:01.763Z,16.10
2022-09-10T08:33:02.476Z,16.00
2022-09-10T08:36:07.330Z,16.10
2022-09-10T08:39:08.623Z,16.30
2022-09-10T08:42:27.962Z,16.30
2022-09-10T08:45:34.060Z,16.40
2022-09-10T08:48:41.033Z,16.30
2022-09-10T08:52:03.274Z,16.20
2022-09-10T08:55:19.690Z,16.30
2022-09-10T08:58:51.837Z,16.10
2022-09-10T09:02:44.810Z,16.30
2022-09-10T09:05:47.370Z,16.30
2022-09-10T09:08:51.984Z,16.40
2022-09-10T09:12:35.172Z,16.50
2022-09-10T09:16:01.862Z,16.60
2022-09-10T09:19:44.738Z,17.10
2022-09-10T09:22:55.257Z,17.10
2022-09-10T09:26:14.685Z,17.10
2022-09-10T09:29:43.772Z,17.20
2022-09-10T09:32:48.202Z,17.30
2022-09-10T09:36:02.095Z,17.70
2022-09-10T09:39:16.760Z,17.70
2022-09-10T09:42:32.844Z,17.70
2022-09-10T09:45:47.811Z,17.50
2022-09-10T09:48:58.257Z,17.80
2022-09-10T09:52:12.016Z,17.20
2022-09-10T09:55:43.637Z,17.20
2022-09-10T09:58:50.058Z,17.50
2022-09-10T10:01:51.934Z,17.50
2022-09-10T10:05:24.471Z,18.00
2022-09-10T10:08:42.834Z,18.80
2022-09-10T10:11:50.509Z,19.40
2022-09-10T10:14:51.789Z,18.90
2022-09-10T10:17:53.378Z,18.30
2022-09-10T10:21:20.256Z,17.80
2022-09-10T10:24:40.635Z,17.30
2022-09-10T10:27:45.491Z,17.20
2022-09-10T10:31:00.397Z,17.00
2022-09-10T10:36:25.342Z,16.50
2022-09-10T10:39:56.575Z,15.50
2022-09-10T10:43:16.188Z,14.70
2022-09-10T10:46:37.547Z,14.20
2022-09-10T10:50:37.040Z,14.00
2022-09-10T10:54:04.728Z,14.00
2022-09-10T10:57:41.847Z,13.90
2022-09-10T11:00:51.440Z,13.90
2022-09-10T11:04:16.421Z,14.00
2022-09-10T11:07:37.145Z,14.20
2022-09-10T11:10:48.982Z,14.40
2022-09-10T11:13:59.652Z,14.50
2022-09-10T11:17:17.374Z,14.50
2022-09-10T11:20:33.493Z,14.80
2022-09-10T11:24:03.466Z,15.00
2022-09-10T11:27:20.714Z,15.30
2022-09-10T11:30:22.493Z,15.50
2022-09-10T11:33:36.471Z,15.80
2022-09-10T11:36:56.245Z,15.80
2022-09-10T11:40:03.273Z,16.30
2022-09-10T11:43:14.845Z,17.90
2022-09-10T11:46:42.486Z,18.40
2022-09-10T11:50:00.898Z,19.00
2022-09-10T11:53:07.655Z,18.40
2022-09-10T11:56:49.668Z,18.40
2022-09-10T12:00:10.136Z,18.50
2022-09-10T12:03:55.846Z,18.70
2022-09-10T12:07:51.206Z,18.50
2022-09-10T12:11:20.566Z,19.60
2022-09-10T12:14:22.102Z,20.50
2022-09-10T12:17:42.774Z,19.30
2022-09-10T12:20:59.519Z,18.70
2022-09-10T12:24:32.838Z,18.20
2022-09-10T12:27:53.231Z,17.70
2022-09-10T12:31:01.308Z,17.60
2022-09-10T12:34:18.799Z,17.60
2022-09-10T12:37:28.767Z,17.70
2022-09-10T12:40:29.754Z,17.80
2022-09-10T12:43:42.466Z,18.20
2022-09-10T12:46:45.000Z,18.70
2022-09-10T12:49:51.092Z,19.30
2022-09-10T12:52:52.412Z,21.30
2022-09-10T12:56:22.340Z,21.00
2022-09-10T13:00:12.174Z,21.10
2022-09-10T13:03:19.996Z,20.70
2022-09-10T13:06:38.925Z,22.20
2022-09-10T13:09:40.467Z,23.20
2022-09-10T13:12:44.547Z,22.70
2022-09-10T13:15:52.755Z,23.60
2022-09-10T13:19:14.183Z,21.70
2022-09-10T13:22:52.974Z,21.40
2022-09-10T13:26:28.896Z,23.20
2022-09-10T13:29:34.416Z,23.50
2022-09-10T13:32:52.318Z,24.00
2022-09-10T13:36:05.771Z,23.00
2022-09-10T13:39:38.097Z,21.30
2022-09-10T13:43:01.859Z,23.40
2022-09-10T13:46:19.753Z,22.80
2022-09-10T13:49:37.792Z,19.80
2022-09-10T13:52:43.098Z,19.70
2022-09-10T13:56:14.466Z,18.30
2022-09-10T13:59:31.004Z,18.00
2022-09-10T14:02:57.108Z,18.20
2022-09-10T14:06:23.292Z,17.80
2022-09-10T14:09:24.406Z,17.70
2022-09-10T14:12:32.366Z,17.90
2022-09-10T14:15:39.813Z,17.90
2022-09-10T14:18:55.608Z,17.90
2022-09-10T14:21:58.290Z,18.10
2022-09-10T14:25:02.868Z,17.70
2022-09-10T14:28:24.616Z,17.60
2022-09-10T14:31:25.715Z,17.20
2022-09-10T14:34:36.281Z,17.20
2022-09-10T14:37:38.180Z,17.60
2022-09-10T14:40:39.371Z,17.70
2022-09-10T14:43:40.845Z,17.90
2022-09-10T14:47:12.950Z,18.60
2022-09-10T14:50:36.785Z,18.80
2022-09-10T14:53:38.403Z,18.80
2022-09-10T14:56:46.479Z,18.80
2022-09-10T14:59:47.720Z,21.80
2022-09-10T15:02:52.029Z,24.90
2022-09-10T15:05:52.835Z,23.70
2022-09-10T15:08:56.350Z,24.90
2022-09-10T15:12:05.256Z,26.10
2022-09-10T15:15:07.090Z,26.30
2022-09-10T15:18:15.090Z,27.50
2022-09-10T15:21:16.859Z,27.00
2022-09-10T15:24:23.232Z,25.20
2022-09-10T15:27:23.841Z,21.40
2022-09-10T15:30:25.850Z,19.80
2022-09-10T15:33:26.752Z,19.20
2022-09-10T15:36:28.521Z,18.60
2022-09-10T15:39:29.738Z,18.20
2022-09-10T15:42:31.436Z,18.30
2022-09-10T15:45:36.261Z,18.70
2022-09-10T15:48:37.725Z,19.80
2022-09-10T15:51:39.457Z,23.10
2022-09-10T15:54:40.206Z,25.00
2022-09-10T15:57:41.258Z,25.20
2022-09-10T16:00:42.404Z,24.80
2022-09-10T16:03:51.891Z,24.60
2022-09-10T16:06:52.687Z,25.60
2022-09-10T16:09:53.801Z,24.90
2022-09-10T16:12:54.812Z,23.80
2022-09-10T16:16:06.042Z,23.10
2022-09-10T16:19:08.016Z,20.20
2022-09-10T16:22:08.779Z,18.40
2022-09-10T16:25:10.286Z,17.50
2022-09-10T16:28:11.170Z,17.20
2022-09-10T16:31:19.218Z,16.90
2022-09-10T16:34:20.825Z,16.80
2022-09-10T16:37:23.506Z,16.70
2022-09-10T16:40:24.182Z,16.50
2022-09-10T16:43:24.934Z,16.50
2022-09-10T16:46:28.136Z,16.30
2022-09-10T16:49:28.939Z,16.20
2022-09-10T16:52:30.885Z,16.10
2022-09-10T16:55:31.856Z,16.00
2022-09-10T16:58:36.056Z,16.20
2022-09-10T17:01:37.941Z,16.50
2022-09-10T17:04:39.610Z,16.50
2022-09-10T17:07:40.253Z,16.20
2022-09-10T17:10:41.381Z,16.20
2022-09-10T17:13:42.838Z,16.10
2022-09-10T17:16:44.458Z,16.10
2022-09-10T17:19:45.382Z,16.00
2022-09-10T17:22:47.018Z,16.00
2022-09-10T17:25:48.056Z,16.00
2022-09-10T17:28:59.750Z,15.80
2022-09-10T17:32:00.622Z,15.80
2022-09-10T17:35:01.632Z,15.70
2022-09-10T17:38:02.528Z,15.60
2022-09-10T17:41:05.432Z,15.50
2022-09-10T17:44:08.184Z,15.40
2022-09-10T17:47:09.788Z,15.30
2022-09-10T17:50:10.938Z,15.20
2022-09-10T17:53:13.550Z,15.20
2022-09-10T17:56:19.255Z,15.20
2022-09-10T17:59:22.077Z,15.20
2022-09-10T18:02:22.893Z,15.10
2022-09-10T18:05:26.543Z,15.10
2022-09-10T18:08:27.439Z,15.00
2022-09-10T18:11:32.722Z,15.00
2022-09-10T18:14:33.704Z,14.90
2022-09-10T18:17:34.374Z,14.80
2022-09-10T18:20:35.932Z,14.80
2022-09-10T18:23:37.095Z,14.70
2022-09-10T18:26:43.645Z,14.60
2022-09-10T18:29:45.347Z,14.60
2022-09-10T18:32:48.025Z,14.60
2022-09-10T18:35:50.246Z,14.60
2022-09-10T18:38:51.811Z,14.60
2022-09-10T18:41:53.688Z,14.60
2022-09-10T18:44:54.735Z,14.50
2022-09-10T18:47:56.094Z,14.50
2022-09-10T18:51:04.120Z,14.50
2022-09-10T18:54:06.035Z,14.40
2022-09-10T18:57:07.167Z,14.40
2022-09-10T19:00:09.145Z,14.40
2022-09-10T19:03:10.330Z,14.40
2022-09-10T19:06:18.116Z,14.40
2022-09-10T19:09:23.845Z,14.40
2022-09-10T19:12:24.542Z,14.50
2022-09-10T19:15:28.117Z,14.40
2022-09-10T19:18:32.822Z,14.40
2022-09-10T19:21:38.516Z,14.40
2022-09-10T19:24:55.725Z,14.40
2022-09-10T19:27:57.769Z,14.40
2022-09-10T19:31:03.486Z,14.40
2022-09-10T19:34:07.752Z,14.30
2022-09-10T19:37:09.913Z,14.30
2022-09-10T19:40:12.568Z,14.30
2022-09-10T19:43:13.584Z,14.30
2022-09-10T19:46:17.761Z,14.30
2022-09-10T19:49:18.967Z,14.30
2022-09-10T19:52:21.473Z,14.30
2022-09-10T19:55:23.870Z,14.30
2022-09-10T19:58:24.646Z,14.30
2022-09-10T20:01:32.126Z,14.20
2022-09-10T20:04:33.652Z,14.20
2022-09-10T20:07:35.602Z,14.20
2022-09-10T20:10:38.298Z,14.20
2022-09-10T20:13:39.042Z,14.10
2022-09-10T20:16:44.974Z,14.20
2022-09-10T20:19:45.995Z,14.10
2022-09-10T20:22:47.299Z,14.10
2022-09-10T20:25:48.530Z,14.10
2022-09-10T20:28:59.404Z,14.10
2022-09-10T20:32:00.526Z,14.10
2022-09-10T20:35:02.923Z,14.20
2022-09-10T20:38:03.798Z,14.20
2022-09-10T20:41:05.935Z,14.20
2022-09-10T20:44:07.857Z,14.30
2022-09-10T20:47:08.562Z,14.30
2022-09-10T20:50:14.211Z,14.30
2022-09-10T20:53:15.113Z,14.20
2022-09-10T20:56:19.885Z,14.20
2022-09-10T20:59:25.539Z,14.20
2022-09-10T21:02:28.823Z,14.20
2022-09-10T21:05:29.971Z,14.10
2022-09-10T21:08:31.701Z,14.10
2022-09-10T21:11:35.264Z,14.10
2022-09-10T21:14:36.793Z,14.00
2022-09-10T21:17:38.267Z,14.00
2022-09-10T21:20:39.031Z,14.00
2022-09-10T21:23:52.180Z,13.90
2022-09-10T21:26:53.715Z,13.90
2022-09-10T21:29:55.001Z,13.90
2022-09-10T21:32:56.042Z,13.80
2022-09-10T21:36:07.191Z,13.80
2022-09-10T21:39:13.883Z,13.90
2022-09-10T21:42:15.310Z,13.90
2022-09-10T21:45:20.071Z,13.90
2022-09-10T21:48:23.289Z,13.90
2022-09-10T21:51:25.066Z,13.90
2022-09-10T21:54:26.502Z,13.80
2022-09-10T21:57:27.754Z,13.80
2022-09-10T22:00:28.751Z,13.80
2022-09-10T22:03:32.221Z,13.80
2022-09-10T22:06:33.958Z,13.80
2022-09-10T22:09:34.670Z,13.80
2022-09-10T22:12:35.456Z,13.80
2022-09-10T22:15:43.073Z,13.70
2022-09-10T22:18:45.457Z,13.80
2022-09-10T22:21:47.271Z,13.80
2022-09-10T22:24:48.136Z,13.80
2022-09-10T22:27:49.599Z,13.80
2022-09-10T22:30:50.933Z,13.80
2022-09-10T22:33:58.979Z,13.80
2022-09-10T22:37:00.971Z,13.80
2022-09-10T22:40:01.826Z,13.80
2022-09-10T22:43:02.902Z,13.80
2022-09-10T22:46:07.099Z,13.80
2022-09-10T22:49:08.885Z,13.80
2022-09-10T22:52:09.636Z,13.70
2022-09-10T22:55:10.769Z,13.70
2022-09-10T22:58:11.899Z,13.70
2022-09-10T23:01:18.124Z,13.60
2022-09-10T23:04:18.797Z,13.50
2022-09-10T23:07:19.699Z,13.50
2022-09-10T23:10:20.976Z,13.40
2022-09-10T23:13:21.978Z,13.40
2022-09-10T23:16:35.910Z,13.50
2022-09-10T23:19:37.127Z,13.40
2022-09-10T23:22:38.252Z,13.40
2022-09-10T23:25:39.504Z,13.30
2022-09-10T23:28:42.414Z,13.30
2022-09-10T23:31:45.285Z,13.20
2022-09-10T23:34:46.188Z,13.20
2022-09-10T23:37:46.815Z,13.20
2022-09-10T23:40:48.066Z,13.20
2022-09-10T23:43:48.958Z,13.20
2022-09-10T23:46:50.815Z,13.20
2022-09-10T23:49:51.444Z,13.10
2022-09-10T23:52:52.482Z,13.00
2022-09-10T23:55:53.734Z,12.90
2022-09-10T23:58:55.905Z,12.90
